Time;durP1;ratioP1;P1;durP2;ratioP2;P2;SDS_P1;SDS_P2;PMS_P1;PMS_P2;Temp;Humidity;BMP_temperature;BMP_pressure;BME280_temperature;BME280_humidity;BME280_pressure;Samples;Min_cycle;Max_cycle;Signal;HPM_P1;HPM_P2
2021/06/21 00:02:48;;;;;;;1999.90;999.90;;;;;;;17.93;100.00;97490.17;3910080;75;44564;-20
2021/06/21 00:07:54;;;;;;;1999.90;999.90;;;;;;;17.97;100.00;97468.77;3931130;73;44012;-20
2021/06/21 00:13:00;;;;;;;1999.90;999.90;;;;;;;17.87;100.00;97437.44;3925048;75;43315;-20
2021/06/21 00:18:12;;;;;;;1999.90;999.90;;;;;;;18.02;100.00;97483.89;3919867;73;43448;-20
2021/06/21 00:23:15;;;;;;;1999.90;999.90;;;;;;;18.05;100.00;97451.25;3937323;73;43237;-20
2021/06/21 00:28:22;;;;;;;1999.90;999.90;;;;;;;17.97;100.00;97393.83;3930906;75;43681;-22
2021/06/21 00:33:28;;;;;;;1999.90;999.90;;;;;;;17.90;100.00;97430.69;3906929;75;43399;-20
2021/06/21 00:38:35;;;;;;;1999.90;999.90;;;;;;;17.92;100.00;97445.45;3897968;73;43675;-21
2021/06/21 00:43:41;;;;;;;1999.90;999.90;;;;;;;17.94;100.00;97394.25;3900310;75;44578;-21
2021/06/21 00:48:50;;;;;;;1999.90;999.90;;;;;;;17.91;100.00;97377.84;3890724;74;43431;-21
2021/06/21 00:53:56;;;;;;;1999.90;999.90;;;;;;;17.95;100.00;97466.77;3898359;74;43663;-21
2021/06/21 00:59:03;;;;;;;1999.90;999.90;;;;;;;18.02;100.00;97451.20;3902933;75;43982;-20
2021/06/21 01:04:10;;;;;;;1999.90;999.90;;;;;;;18.04;100.00;97412.28;3902926;75;43281;-21
2021/06/21 01:09:16;;;;;;;1999.90;999.90;;;;;;;18.00;100.00;97402.91;3910215;74;44368;-20
2021/06/21 01:14:27;;;;;;;1999.90;999.90;;;;;;;18.04;100.00;97423.18;3902724;75;43269;-20
2021/06/21 01:20:09;;;;;;;1999.90;999.90;;;;;;;18.10;100.00;97404.52;3905521;74;44069;-20
2021/06/21 01:25:28;;;;;;;1999.90;999.90;;;;;;;18.13;100.00;97369.98;3836771;75;43682;-20
2021/06/21 01:30:55;;;;;;;1999.90;999.90;;;;;;;18.05;100.00;97371.67;3910295;75;44026;-19
2021/06/21 01:36:04;;;;;;;1999.90;999.90;;;;;;;18.05;100.00;97419.36;3910364;74;43716;-20
2021/06/21 01:41:14;;;;;;;1999.90;999.90;;;;;;;18.07;100.00;97414.52;3919714;75;44814;-20
2021/06/21 01:46:23;;;;;;;1999.90;999.90;;;;;;;18.09;100.00;97404.76;3912269;75;43721;-20
2021/06/21 01:51:33;;;;;;;1999.90;999.90;;;;;;;18.10;100.00;97388.16;3905445;74;44810;-20
2021/06/21 01:56:43;;;;;;;1999.90;999.90;;;;;;;18.09;100.00;97347.52;3893571;75;44008;-20
2021/06/21 02:01:49;;;;;;;1999.90;999.90;;;;;;;18.07;100.00;97330.58;3920662;75;43062;-20
2021/06/21 02:06:56;;;;;;;1999.90;999.90;;;;;;;18.07;100.00;97320.48;3913905;74;43466;-20
2021/06/21 02:12:03;;;;;;;1999.90;999.90;;;;;;;18.05;100.00;97298.09;3905897;75;43384;-20
2021/06/21 02:17:10;;;;;;;1999.90;999.90;;;;;;;18.04;100.00;97297.82;3903002;75;43686;-20
2021/06/21 02:22:19;;;;;;;1999.90;999.90;;;;;;;17.98;100.00;97306.41;3902279;74;44012;-20
2021/06/21 02:27:25;;;;;;;1999.90;999.90;;;;;;;17.98;100.00;97302.84;3904500;74;42949;-20
2021/06/21 02:32:32;;;;;;;1999.90;999.90;;;;;;;17.97;100.00;97301.17;3910911;75;43246;-20
2021/06/21 02:37:39;;;;;;;1999.90;999.90;;;;;;;17.94;100.00;97298.89;3918247;74;43384;-20
2021/06/21 02:42:45;;;;;;;1999.90;999.90;;;;;;;17.90;100.00;97290.91;3898674;75;43145;-20
2021/06/21 02:47:52;;;;;;;1999.90;999.90;;;;;;;17.85;100.00;97293.80;3905021;75;44039;-20
2021/06/21 02:53:05;;;;;;;1999.90;999.90;;;;;;;17.84;100.00;97292.69;3905492;75;43705;-20
2021/06/21 02:58:15;;;;;;;1999.90;999.90;;;;;;;17.70;100.00;97302.44;3901092;74;43288;-20
2021/06/21 03:03:23;;;;;;;1999.90;999.90;;;;;;;17.65;100.00;97313.73;3895686;75;43342;-20
2021/06/21 03:08:30;;;;;;;1999.90;999.90;;;;;;;17.61;100.00;97317.98;3912659;74;43513;-20
2021/06/21 03:13:38;;;;;;;1999.90;999.90;;;;;;;17.56;100.00;97332.30;3908220;75;43620;-20
2021/06/21 03:18:47;;;;;;;1999.90;999.90;;;;;;;17.55;100.00;97336.09;3910720;75;43464;-20
2021/06/21 03:23:57;;;;;;;1999.90;999.90;;;;;;;17.52;100.00;97325.69;3887630;74;43486;-19
2021/06/21 03:29:06;;;;;;;1999.90;999.90;;;;;;;17.52;100.00;97321.05;3895566;74;43043;-20
2021/06/21 03:34:13;;;;;;;1999.90;999.90;;;;;;;17.54;100.00;97311.28;3890020;75;43391;-20
2021/06/21 03:39:19;;;;;;;1999.90;999.90;;;;;;;17.51;100.00;97315.31;3924812;74;43682;-20
2021/06/21 03:44:26;;;;;;;1999.90;999.90;;;;;;;17.52;100.00;97316.16;3922224;74;44031;-20
2021/06/21 03:49:33;;;;;;;1999.90;999.90;;;;;;;17.50;100.00;97325.90;3919388;74;44049;-20
2021/06/21 03:54:39;;;;;;;1999.90;999.90;;;;;;;17.47;100.00;97335.07;3917111;74;43538;-20
2021/06/21 03:59:45;;;;;;;1999.90;999.90;;;;;;;17.44;100.00;97326.00;3852293;76;44055;-20
2021/06/21 04:04:51;;;;;;;1999.90;999.90;;;;;;;17.36;100.00;97327.16;3851127;76;44069;-20
2021/06/21 04:09:58;;;;;;;1999.90;999.90;;;;;;;17.41;100.00;97336.83;3828230;76;43749;-20
2021/06/21 04:15:05;;;;;;;1999.90;999.90;;;;;;;17.45;100.00;97339.91;3953422;74;44030;-20
2021/06/21 04:20:15;;;;;;;1999.90;999.90;;;;;;;17.48;100.00;97348.44;3834499;76;43463;-20
2021/06/21 04:25:23;;;;;;;1999.90;999.90;;;;;;;17.50;100.00;97344.96;3848324;76;44074;-19
2021/06/21 04:30:30;;;;;;;1999.90;999.90;;;;;;;17.50;100.00;97342.23;3837426;76;44050;-20
2021/06/21 04:35:37;;;;;;;1999.90;999.90;;;;;;;17.58;100.00;97343.80;3834648;76;43346;-19
2021/06/21 04:40:43;;;;;;;1999.90;999.90;;;;;;;17.72;100.00;97344.41;3895031;75;43087;-20
2021/06/21 04:45:50;;;;;;;1999.90;999.90;;;;;;;17.84;100.00;97368.42;3910181;75;43686;-20
2021/06/21 04:50:56;;;;;;;1999.90;999.90;;;;;;;17.85;100.00;97381.52;3906928;74;44034;-20
2021/06/21 04:56:02;;;;;;;1999.90;999.90;;;;;;;17.87;100.00;97382.95;3795307;77;44370;-20
2021/06/21 05:01:08;;;;;;;1999.90;999.90;;;;;;;17.90;100.00;97371.28;3893175;75;43685;-20
2021/06/21 05:06:15;;;;;;;1999.90;999.90;;;;;;;17.97;100.00;97370.66;3912212;74;44103;-20
2021/06/21 05:11:21;;;;;;;1999.90;999.90;;;;;;;18.00;100.00;97366.11;3888310;75;43681;-21
2021/06/21 05:16:27;;;;;;;1999.90;999.90;;;;;;;18.05;100.00;97377.12;3899446;75;43347;-21
2021/06/21 05:21:33;;;;;;;1999.90;999.90;;;;;;;18.11;100.00;97384.38;3913455;74;43415;-21
2021/06/21 05:26:39;;;;;;;1999.90;999.90;;;;;;;18.25;100.00;97395.05;3916214;75;43403;-21
2021/06/21 05:31:45;;;;;;;1999.90;999.90;;;;;;;18.35;100.00;97392.56;3903764;75;43730;-21
2021/06/21 05:36:51;;;;;;;1999.90;999.90;;;;;;;18.55;100.00;97403.12;3899722;73;43370;-21
2021/06/21 05:41:58;;;;;;;1999.90;999.90;;;;;;;18.74;100.00;97401.09;3925188;75;43994;-22
2021/06/21 05:47:05;;;;;;;1999.90;999.90;;;;;;;18.93;100.00;97406.38;3917307;75;43340;-21
2021/06/21 05:52:11;;;;;;;1999.90;999.90;;;;;;;19.09;100.00;97402.95;3941245;74;44058;-22
2021/06/21 05:57:17;;;;;;;1999.90;999.90;;;;;;;19.21;100.00;97408.91;3920455;75;43409;-21
2021/06/21 06:02:25;;;;;;;1999.90;999.90;;;;;;;19.36;100.00;97410.55;3907726;75;44217;-21
2021/06/21 06:07:33;;;;;;;1999.90;999.90;;;;;;;19.50;100.00;97402.92;3914359;74;44023;-22
2021/06/21 06:12:40;;;;;;;1999.90;999.90;;;;;;;19.64;100.00;97413.55;3930365;73;44093;-22
2021/06/21 06:17:47;;;;;;;1999.90;999.90;;;;;;;19.85;100.00;97417.46;3921370;75;44018;-21
2021/06/21 06:22:53;;;;;;;1999.90;999.90;;;;;;;20.01;100.00;97420.80;3917940;74;43720;-22
2021/06/21 06:28:00;;;;;;;1999.90;999.90;;;;;;;20.14;100.00;97427.84;3926176;75;44497;-22
2021/06/21 06:33:07;;;;;;;1999.90;999.90;;;;;;;20.24;100.00;97431.29;3925637;75;43720;-21
2021/06/21 06:38:13;;;;;;;1999.90;999.90;;;;;;;20.51;100.00;97435.25;3909482;73;43721;-21
2021/06/21 06:43:19;;;;;;;1999.90;999.90;;;;;;;20.65;100.00;97440.67;3907405;74;43302;-21
2021/06/21 06:48:25;;;;;;;1999.90;999.90;;;;;;;20.77;100.00;97455.12;3910739;75;44032;-22
2021/06/21 06:53:39;;;;;;;1999.90;999.90;;;;;;;20.96;100.00;97448.53;3896729;74;43481;-20
2021/06/21 06:58:43;;;;;;;1999.90;999.90;;;;;;;21.01;100.00;97444.47;3903696;75;44117;-20
2021/06/21 07:03:51;;;;;;;1999.90;999.90;;;;;;;21.12;100.00;97450.93;3897137;75;43193;-20
2021/06/21 07:08:57;;;;;;;1999.90;999.90;;;;;;;21.02;100.00;97455.72;3885642;74;43718;-20
2021/06/21 07:14:03;;;;;;;1999.90;999.90;;;;;;;21.09;100.00;97450.91;3896522;74;43690;-21
2021/06/21 07:19:09;;;;;;;1999.90;999.90;;;;;;;21.22;100.00;97460.64;3893634;75;44475;-21
2021/06/21 07:24:16;;;;;;;1999.90;999.90;;;;;;;21.22;100.00;97454.64;3900869;74;43396;-21
2021/06/21 07:29:22;;;;;;;1999.90;999.90;;;;;;;21.21;100.00;97442.03;3902107;75;43341;-21
2021/06/21 07:34:28;;;;;;;1999.90;999.90;;;;;;;21.14;100.00;97450.14;3912240;75;43408;-21
2021/06/21 07:39:34;;;;;;;1999.90;999.90;;;;;;;21.03;100.00;97457.38;3902037;74;43690;-21
2021/06/21 07:44:40;;;;;;;1999.90;999.90;;;;;;;20.98;100.00;97450.48;3899900;75;44140;-21
2021/06/21 07:49:47;;;;;;;1999.90;999.90;;;;;;;21.02;100.00;97459.83;3893714;74;44173;-21
2021/06/21 07:54:58;;;;;;;1999.90;999.90;;;;;;;21.21;100.00;97443.40;3898352;74;44034;-21
2021/06/21 08:00:02;;;;;;;1999.90;999.90;;;;;;;21.23;100.00;97455.45;3790435;77;43718;-22
2021/06/21 08:05:11;;;;;;;1999.90;999.90;;;;;;;21.39;100.00;97453.73;3897083;74;26515;-23
2021/06/21 08:10:18;;;;;;;1999.90;999.90;;;;;;;21.51;100.00;97452.24;3904878;74;44081;-21
2021/06/21 08:15:26;;;;;;;1999.90;999.90;;;;;;;21.51;100.00;97441.28;3893241;75;44097;-21
2021/06/21 08:20:33;;;;;;;1999.90;999.90;;;;;;;21.51;100.00;97440.72;3905492;74;43975;-21
2021/06/21 08:25:39;;;;;;;1999.90;999.90;;;;;;;21.73;100.00;97449.48;3903797;74;44046;-21
2021/06/21 08:30:47;;;;;;;1999.90;999.90;;;;;;;21.99;100.00;97458.79;3891223;75;43389;-22
2021/06/21 08:35:53;;;;;;;1999.90;999.90;;;;;;;22.12;100.00;97467.16;3906746;74;43659;-21
2021/06/21 08:40:59;;;;;;;1999.90;999.90;;;;;;;22.26;100.00;97470.84;3851936;76;42842;-21
2021/06/21 08:51:18;;;;;;;1999.90;999.90;;;;;;;22.26;100.00;97479.08;3949823;73;28381;-19
2021/06/21 09:01:41;;;;;;;1999.90;999.90;;;;;;;22.61;100.00;97482.69;3981994;73;27224;-19
2021/06/21 09:06:47;;;;;;;1999.90;999.90;;;;;;;22.65;100.00;97488.47;3861346;76;43396;-22
2021/06/21 09:11:57;;;;;;;1999.90;999.90;;;;;;;22.75;100.00;97483.08;3934754;74;43416;-22
2021/06/21 09:17:05;;;;;;;1999.90;999.90;;;;;;;22.97;100.00;97480.75;3936113;74;43511;-22
2021/06/21 09:22:26;;;;;;;1999.90;999.90;;;;;;;23.13;100.00;97482.19;3932504;74;43984;-22
2021/06/21 09:27:33;;;;;;;1999.90;999.90;;;;;;;23.03;100.00;97479.67;3930784;74;43447;-22
2021/06/21 09:32:41;;;;;;;1999.90;999.90;;;;;;;22.80;100.00;97480.07;3934880;74;44071;-22
2021/06/21 09:37:49;;;;;;;1999.90;999.90;;;;;;;22.85;100.00;97476.00;3916725;73;43674;-22
2021/06/21 09:42:55;;;;;;;1999.90;999.90;;;;;;;22.93;100.00;97478.23;3922330;74;44531;-22
2021/06/21 09:48:01;;;;;;;1999.90;999.90;;;;;;;23.05;100.00;97477.48;3936252;73;43057;-20
2021/06/21 09:53:07;;;;;;;1999.90;999.90;;;;;;;23.26;100.00;97467.19;3952959;74;43719;-21
2021/06/21 09:58:14;;;;;;;1999.90;999.90;;;;;;;23.42;100.00;97468.08;3941109;74;43192;-21
2021/06/21 10:03:22;;;;;;;1999.90;999.90;;;;;;;23.60;100.00;97466.22;3931066;75;43416;-21
2021/06/21 10:08:40;;;;;;;1999.90;999.90;;;;;;;23.80;99.20;97477.83;3918043;74;44040;-21
2021/06/21 10:13:46;;;;;;;1999.90;999.90;;;;;;;23.86;99.71;97480.05;3921279;75;44182;-21
2021/06/21 10:18:54;;;;;;;1999.90;999.90;;;;;;;24.21;100.00;97470.23;3908456;75;43420;-21
2021/06/21 10:24:00;;;;;;;1999.90;999.90;;;;;;;24.34;96.46;97468.89;3909259;75;44011;-21
2021/06/21 10:29:07;;;;;;;1999.90;999.90;;;;;;;24.38;93.26;97470.53;3920803;74;44054;-21
2021/06/21 10:34:14;;;;;;;1999.90;999.90;;;;;;;24.43;95.46;97471.36;3906568;75;43713;-21
2021/06/21 10:39:22;;;;;;;1999.90;999.90;;;;;;;24.58;91.92;97465.02;3913841;74;43308;-21
2021/06/21 10:44:38;;;;;;;1999.90;999.90;;;;;;;24.73;93.12;97477.16;3902053;75;43263;-22
2021/06/21 10:49:54;;;;;;;1999.90;999.90;;;;;;;24.76;89.71;97469.70;3912492;75;43349;-22
2021/06/21 10:55:33;;;;;;;1999.90;999.90;;;;;;;25.00;89.62;97461.68;3905850;75;44069;-23
2021/06/21 11:00:42;;;;;;;1999.90;999.90;;;;;;;25.08;88.22;97469.94;3923554;74;44028;-21
2021/06/21 11:05:48;;;;;;;1999.90;999.90;;;;;;;25.18;88.95;97464.92;3935713;74;43094;-21
2021/06/21 11:10:57;;;;;;;1999.90;999.90;;;;;;;25.42;78.86;97461.03;3939957;75;43296;-22
2021/06/21 11:21:46;;;;;;;1999.90;999.90;;;;;;;25.35;69.49;97472.86;3977880;73;27078;-19
2021/06/21 11:27:01;;;;;;;1999.90;999.90;;;;;;;25.52;77.31;97468.41;3910283;75;43743;-21
2021/06/21 11:32:08;;;;;;;1999.90;999.90;;;;;;;25.54;78.94;97466.20;3916154;74;44028;-21
2021/06/21 11:37:36;;;;;;;1999.90;999.90;;;;;;;25.77;77.24;97475.75;3915502;75;44121;-22
2021/06/21 11:42:42;;;;;;;1999.90;999.90;;;;;;;25.74;73.12;97479.08;3914427;75;43682;-22
2021/06/21 11:47:49;;;;;;;1999.90;999.90;;;;;;;25.89;72.88;97478.73;3917212;75;43711;-21
2021/06/21 11:52:55;;;;;;;1999.90;999.90;;;;;;;26.04;68.98;97464.84;3914078;74;43674;-22
2021/06/21 11:58:02;;;;;;;1999.90;999.90;;;;;;;25.91;66.70;97472.38;3906425;75;43588;-22
2021/06/21 12:03:13;;;;;;;1999.90;999.90;;;;;;;25.95;61.91;97473.44;3906292;74;44224;-22
2021/06/21 12:08:20;;;;;;;1999.90;999.90;;;;;;;26.02;64.32;97473.13;3909042;75;43688;-22
2021/06/21 12:13:25;;;;;;;1999.90;999.90;;;;;;;26.22;64.66;97469.44;3900275;75;43468;-22
2021/06/21 12:18:31;;;;;;;1999.90;999.90;;;;;;;26.33;67.17;97470.20;3898129;75;43410;-21
2021/06/21 12:23:37;;;;;;;1999.90;999.90;;;;;;;26.44;64.15;97474.52;3902403;75;44789;-22
2021/06/21 12:28:44;;;;;;;1999.90;999.90;;;;;;;26.49;62.61;97470.89;3911072;75;44041;-22
2021/06/21 12:33:53;;;;;;;1999.90;999.90;;;;;;;26.41;62.98;97456.58;3902426;75;43270;-22
2021/06/21 12:39:01;;;;;;;1999.90;999.90;;;;;;;26.80;64.35;97459.05;3908117;74;43704;-22
2021/06/21 12:44:11;;;;;;;1999.90;999.90;;;;;;;27.03;64.59;97457.98;3899847;75;43150;-22
2021/06/21 12:49:19;;;;;;;1999.90;999.90;;;;;;;27.55;62.17;97456.85;3903111;75;43695;-22
2021/06/21 12:54:26;;;;;;;1999.90;999.90;;;;;;;27.32;64.92;97453.78;3902248;75;44082;-22
2021/06/21 12:59:36;;;;;;;1999.90;999.90;;;;;;;27.35;65.07;97457.32;3910432;75;43992;-22
2021/06/21 13:04:42;;;;;;;1999.90;999.90;;;;;;;27.85;55.52;97452.01;3898874;75;43461;-22
2021/06/21 13:09:52;;;;;;;1999.90;999.90;;;;;;;27.85;56.78;97468.61;3898183;74;44027;-22
2021/06/21 13:15:11;;;;;;;1999.90;999.90;;;;;;;27.17;59.86;97462.25;3906280;75;44494;-22
2021/06/21 13:20:20;;;;;;;1999.90;999.90;;;;;;;27.83;57.95;97466.70;3911073;74;44034;-23
2021/06/21 13:25:30;;;;;;;1999.90;999.90;;;;;;;27.88;58.44;97469.41;3919320;74;44035;-23
2021/06/21 13:30:41;;;;;;;1999.90;999.90;;;;;;;28.32;56.24;97468.80;3928552;74;44094;-23
2021/06/21 13:35:50;;;;;;;1999.90;999.90;;;;;;;28.07;55.06;97478.27;3917217;74;43995;-22
2021/06/21 13:40:58;;;;;;;1999.90;999.90;;;;;;;27.98;51.42;97458.19;3919661;74;44363;-23
2021/06/21 13:46:14;;;;;;;1999.90;999.90;;;;;;;28.27;54.06;97448.09;3929289;74;43724;-22
2021/06/21 13:51:23;;;;;;;1999.90;999.90;;;;;;;27.86;56.16;97450.89;3953317;74;43105;-23
2021/06/21 13:56:32;;;;;;;1999.90;999.90;;;;;;;27.99;52.05;97451.53;3862464;76;44521;-22
2021/06/21 14:01:38;;;;;;;1999.90;999.90;;;;;;;27.30;56.77;97446.34;3840017;76;44030;-22
2021/06/21 14:06:44;;;;;;;1999.90;999.90;;;;;;;26.98;58.18;97453.34;3862995;76;44027;-22
2021/06/21 14:11:52;;;;;;;1999.90;999.90;;;;;;;26.68;58.55;97459.39;3942788;74;44261;-22
2021/06/21 14:17:00;;;;;;;1999.90;999.90;;;;;;;26.62;60.18;97453.66;3853917;76;44197;-22
2021/06/21 14:22:07;;;;;;;1999.90;999.90;;;;;;;26.75;61.67;97445.23;3827931;76;43708;-22
2021/06/21 14:27:14;;;;;;;1999.90;999.90;;;;;;;27.63;53.96;97445.69;3873747;75;43051;-22
2021/06/21 14:32:22;;;;;;;1999.90;999.90;;;;;;;27.80;51.59;97459.02;3876403;75;43122;-22
2021/06/21 14:37:32;;;;;;;1999.90;999.90;;;;;;;27.97;52.96;97453.77;3880928;75;44028;-23
2021/06/21 14:42:39;;;;;;;1999.90;999.90;;;;;;;27.53;55.43;97471.53;3867255;75;44458;-22
2021/06/21 14:47:46;;;;;;;1999.90;999.90;;;;;;;28.21;53.46;97469.52;3866251;75;44205;-21
2021/06/21 14:52:52;;;;;;;1999.90;999.90;;;;;;;28.09;51.20;97467.21;3882522;74;43681;-22
2021/06/21 14:58:00;;;;;;;1999.90;999.90;;;;;;;28.75;49.91;97476.16;3875424;75;44385;-22
2021/06/21 15:03:08;;;;;;;1999.90;999.90;;;;;;;29.05;50.43;97469.79;3872305;75;43695;-23
2021/06/21 15:08:16;;;;;;;1999.90;999.90;;;;;;;28.52;48.64;97482.86;3869286;74;42928;-23
2021/06/21 15:13:22;;;;;;;1999.90;999.90;;;;;;;28.88;51.07;97476.73;3888008;75;43710;-22
2021/06/21 15:18:29;;;;;;;1999.90;999.90;;;;;;;28.96;50.57;97477.17;3889589;74;43456;-22
2021/06/21 15:23:35;;;;;;;1999.90;999.90;;;;;;;29.06;47.55;97483.34;3893307;74;43451;-21
2021/06/21 15:28:42;;;;;;;1999.90;999.90;;;;;;;28.97;50.23;97476.86;3875225;75;43674;-22
2021/06/21 15:33:48;;;;;;;1999.90;999.90;;;;;;;29.03;50.10;97478.97;3874535;75;44034;-22
2021/06/21 15:38:54;;;;;;;1999.90;999.90;;;;;;;29.08;48.99;97476.66;3885014;74;43646;-22
2021/06/21 15:44:00;;;;;;;1999.90;999.90;;;;;;;29.25;47.17;97474.12;3876910;75;43596;-22
2021/06/21 15:49:06;;;;;;;1999.90;999.90;;;;;;;28.78;45.99;97481.08;3884842;75;43366;-22
2021/06/21 15:54:13;;;;;;;1999.90;999.90;;;;;;;29.21;47.68;97485.56;3887348;75;43653;-22
2021/06/21 15:59:20;;;;;;;1999.90;999.90;;;;;;;28.90;46.42;97481.99;3867851;75;44027;-22
2021/06/21 16:04:26;;;;;;;1999.90;999.90;;;;;;;28.67;46.85;97478.20;3872685;75;43431;-22
2021/06/21 16:09:32;;;;;;;1999.90;999.90;;;;;;;28.44;46.86;97487.71;3873969;75;44087;-23
2021/06/21 16:14:38;;;;;;;1999.90;999.90;;;;;;;28.43;46.36;97488.29;3873835;75;42851;-21
2021/06/21 16:19:48;;;;;;;1999.90;999.90;;;;;;;28.62;46.22;97485.23;3860717;75;44065;-23
2021/06/21 16:24:53;;;;;;;1999.90;999.90;;;;;;;28.69;44.72;97481.48;3872537;75;44482;-22
2021/06/21 16:30:00;;;;;;;1999.90;999.90;;;;;;;28.51;44.03;97482.62;3858547;76;43673;-21
2021/06/21 16:35:09;;;;;;;1999.90;999.90;;;;;;;28.96;45.22;97486.30;3874245;76;44118;-21
2021/06/21 16:40:16;;;;;;;1999.90;999.90;;;;;;;28.90;45.17;97489.73;3864866;75;43187;-21
2021/06/21 16:45:24;;;;;;;1999.90;999.90;;;;;;;28.72;44.13;97493.39;3866638;76;43714;-22
2021/06/21 16:50:32;;;;;;;1999.90;999.90;;;;;;;28.57;44.55;97498.03;3865823;76;44109;-22
2021/06/21 16:55:42;;;;;;;1999.90;999.90;;;;;;;28.84;44.18;97497.05;3871959;75;43719;-22
2021/06/21 17:00:51;;;;;;;1999.90;999.90;;;;;;;28.45;47.35;97493.52;3873273;75;44444;-23
2021/06/21 17:05:55;;;;;;;1999.90;999.90;;;;;;;28.47;46.54;97496.81;3867116;75;44070;-21
2021/06/21 17:11:03;;;;;;;1999.90;999.90;;;;;;;28.32;46.63;97493.73;3872196;76;43415;-22
2021/06/21 17:16:09;;;;;;;1999.90;999.90;;;;;;;28.46;46.44;97496.55;3874457;75;43714;-22
2021/06/21 17:21:16;;;;;;;1999.90;999.90;;;;;;;28.87;46.49;97501.42;3885093;74;44097;-22
2021/06/21 17:26:25;;;;;;;1999.90;999.90;;;;;;;28.20;49.01;97508.59;3909160;74;43046;-22
2021/06/21 17:31:31;;;;;;;1999.90;999.90;;;;;;;27.23;53.43;97505.30;3909698;75;43726;-22
2021/06/21 17:36:38;;;;;;;1999.90;999.90;;;;;;;27.56;54.13;97504.69;3912638;74;44637;-22
2021/06/21 17:41:44;;;;;;;1999.90;999.90;;;;;;;26.90;53.24;97516.13;3927748;75;43714;-22
2021/06/21 17:46:50;;;;;;;1999.90;999.90;;;;;;;26.59;53.15;97521.91;3915361;74;43102;-22
2021/06/21 17:51:56;;;;;;;1999.90;999.90;;;;;;;26.44;56.11;97520.90;3914694;74;43463;-22
2021/06/21 17:57:02;;;;;;;1999.90;999.90;;;;;;;27.26;54.64;97530.17;3919541;74;43386;-22
2021/06/21 18:02:08;;;;;;;1999.90;999.90;;;;;;;27.30;54.64;97521.00;3896327;75;44061;-23
2021/06/21 18:07:14;;;;;;;1999.90;999.90;;;;;;;27.18;53.62;97538.55;3890114;74;44456;-22
2021/06/21 18:12:21;;;;;;;1999.90;999.90;;;;;;;26.65;54.29;97529.02;3893518;75;43386;-22
2021/06/21 18:17:27;;;;;;;1999.90;999.90;;;;;;;26.92;55.05;97544.31;3904795;75;43003;-22
2021/06/21 18:22:33;;;;;;;1999.90;999.90;;;;;;;26.61;56.89;97548.69;3897146;75;43713;-22
2021/06/21 18:27:40;;;;;;;1999.90;999.90;;;;;;;26.62;58.36;97551.72;3764483;78;43620;-22
2021/06/21 18:32:47;;;;;;;1999.90;999.90;;;;;;;26.54;60.16;97557.84;3873907;75;42852;-22
2021/06/21 18:37:54;;;;;;;1999.90;999.90;;;;;;;26.23;62.23;97561.62;3869896;75;44067;-22
2021/06/21 18:43:01;;;;;;;1999.90;999.90;;;;;;;25.79;63.68;97574.78;3874798;75;43690;-22
2021/06/21 18:48:09;;;;;;;1999.90;999.90;;;;;;;25.62;64.13;97577.33;3880293;75;44025;-22
2021/06/21 18:53:16;;;;;;;1999.90;999.90;;;;;;;25.22;64.53;97575.74;3879533;75;43714;-22
2021/06/21 18:58:22;;;;;;;1999.90;999.90;;;;;;;24.91;64.52;97584.58;3883192;75;43435;-22
2021/06/21 19:08:40;;;;;;;1999.90;999.90;;;;;;;24.43;65.83;97589.73;3998802;72;27584;-19
2021/06/21 19:13:47;;;;;;;1999.90;999.90;;;;;;;24.25;67.21;97588.31;3923697;73;44067;-21
2021/06/21 19:18:53;;;;;;;1999.90;999.90;;;;;;;24.08;67.22;97597.33;3919787;75;43397;-21
2021/06/21 19:24:00;;;;;;;1999.90;999.90;;;;;;;23.90;67.60;97599.45;3929172;75;43309;-21
2021/06/21 19:29:06;;;;;;;1999.90;999.90;;;;;;;23.75;68.70;97607.61;3913240;75;43730;-22
2021/06/21 19:34:14;;;;;;;1999.90;999.90;;;;;;;23.40;71.52;97600.29;3927276;73;43376;-22
2021/06/21 19:39:21;;;;;;;1999.90;999.90;;;;;;;23.15;73.46;97607.23;3934095;73;43459;-22
2021/06/21 19:44:27;;;;;;;1999.90;999.90;;;;;;;22.96;75.97;97608.18;3922493;75;44223;-22
2021/06/21 19:49:32;;;;;;;1999.90;999.90;;;;;;;22.77;77.03;97603.06;3926600;75;43992;-22
2021/06/21 19:54:38;;;;;;;1999.90;999.90;;;;;;;22.75;76.87;97599.77;3910764;73;44111;-22
2021/06/21 19:59:45;;;;;;;1999.90;999.90;;;;;;;22.60;78.58;97611.97;3919157;75;43432;-22
2021/06/21 20:04:51;;;;;;;1999.90;999.90;;;;;;;22.58;77.70;97608.66;3906797;75;42644;-22
2021/06/21 20:09:56;;;;;;;1999.90;999.90;;;;;;;22.63;77.30;97612.84;3893769;74;42772;-22
2021/06/21 20:15:05;;;;;;;1999.90;999.90;;;;;;;22.55;83.13;97603.15;3895255;75;43032;-22
2021/06/21 20:20:15;;;;;;;1999.90;999.90;;;;;;;22.38;84.14;97599.11;3894956;75;43680;-22
2021/06/21 20:25:21;;;;;;;1999.90;999.90;;;;;;;22.23;85.86;97598.93;3896739;74;44002;-23
2021/06/21 20:30:28;;;;;;;1999.90;999.90;;;;;;;21.98;89.03;97604.41;3889889;75;44202;-22
2021/06/21 20:35:36;;;;;;;1999.90;999.90;;;;;;;21.90;89.50;97596.08;3883981;75;43730;-22
2021/06/21 20:40:43;;;;;;;1999.90;999.90;;;;;;;21.72;90.93;97598.59;3896347;74;44215;-23
2021/06/21 20:45:49;;;;;;;1999.90;999.90;;;;;;;21.70;90.32;97615.30;3891910;75;44010;-23
2021/06/21 20:50:56;;;;;;;1999.90;999.90;;;;;;;21.60;91.00;97615.70;3898153;74;43669;-23
2021/06/21 20:56:02;;;;;;;1999.90;999.90;;;;;;;21.50;92.52;97611.70;3900364;75;44026;-23
2021/06/21 21:01:08;;;;;;;1999.90;999.90;;;;;;;21.42;93.70;97614.03;3888540;75;43326;-22
2021/06/21 21:06:14;;;;;;;1999.90;999.90;;;;;;;21.23;94.63;97615.70;3909058;74;43730;-22
2021/06/21 21:11:20;;;;;;;1999.90;999.90;;;;;;;21.07;94.16;97628.32;3899682;74;43708;-21
2021/06/21 21:16:26;;;;;;;1999.90;999.90;;;;;;;20.57;100.00;97643.03;3906789;74;43687;-21
2021/06/21 21:21:34;;;;;;;1999.90;999.90;;;;;;;20.48;100.00;97640.41;3901275;74;42820;-23
2021/06/21 21:26:40;;;;;;;1999.90;999.90;;;;;;;20.07;100.00;97640.44;3900538;75;44762;-22
2021/06/21 21:31:46;;;;;;;1999.90;999.90;;;;;;;19.55;100.00;97648.86;3891869;75;43700;-22
2021/06/21 21:36:52;;;;;;;1999.90;999.90;;;;;;;19.12;100.00;97652.78;3908528;74;43379;-22
2021/06/21 21:41:58;;;;;;;1999.90;999.90;;;;;;;18.83;100.00;97674.95;3902444;74;43447;-22
2021/06/21 21:47:05;;;;;;;1999.90;999.90;;;;;;;18.66;100.00;97681.05;3892326;75;43441;-22
2021/06/21 21:52:11;;;;;;;1999.90;999.90;;;;;;;18.50;100.00;97698.09;3907161;75;44541;-21
2021/06/21 21:57:18;;;;;;;1999.90;999.90;;;;;;;18.35;100.00;97704.77;3893976;75;44040;-23
2021/06/21 22:02:24;;;;;;;1999.90;999.90;;;;;;;18.22;100.00;97709.88;3907605;74;43690;-23
2021/06/21 22:07:30;;;;;;;1999.90;999.90;;;;;;;18.07;100.00;97731.22;3923180;73;43689;-21
2021/06/21 22:12:36;;;;;;;1999.90;999.90;;;;;;;17.92;100.00;97728.84;3952024;74;44415;-20
2021/06/21 22:17:42;;;;;;;1999.90;999.90;;;;;;;17.76;100.00;97734.35;3951287;73;44002;-21
2021/06/21 22:22:48;;;;;;;1999.90;999.90;;;;;;;17.70;100.00;97756.48;3942401;73;44470;-20
2021/06/21 22:27:55;;;;;;;1999.90;999.90;;;;;;;17.61;100.00;97779.11;3942482;74;44031;-21
2021/06/21 22:38:15;;;;;;;1999.90;999.90;;;;;;;17.42;100.00;97782.30;4010145;73;27214;-18
2021/06/21 22:43:21;;;;;;;1999.90;999.90;;;;;;;17.18;100.00;97798.37;3958042;73;43060;-20
2021/06/21 22:48:27;;;;;;;1999.90;999.90;;;;;;;17.00;100.00;97803.70;3966511;73;44016;-21
2021/06/21 22:53:34;;;;;;;1999.90;999.90;;;;;;;16.90;100.00;97813.14;3964408;73;43027;-21
2021/06/21 22:58:40;;;;;;;1999.90;999.90;;;;;;;16.81;100.00;97810.92;3959650;74;43199;-21
2021/06/21 23:03:46;;;;;;;1999.90;999.90;;;;;;;16.72;100.00;97808.96;3953132;75;44047;-21